createdAt,value
2018-03-11T00:00:55.615Z,0.00
2018-03-11T00:01:55.587Z,0.00
2018-03-11T00:02:55.566Z,0.00
2018-03-11T00:03:55.550Z,0.00
2018-03-11T00:04:55.526Z,0.00
2018-03-11T00:05:55.510Z,0.00
2018-03-11T00:06:55.489Z,0.00
2018-03-11T00:07:55.569Z,0.00
2018-03-11T00:08:55.453Z,0.00
2018-03-11T00:09:55.444Z,0.00
2018-03-11T00:10:55.408Z,0.00
2018-03-11T00:11:55.391Z,0.00
2018-03-11T00:12:55.370Z,0.00
2018-03-11T00:13:55.502Z,0.00
2018-03-11T00:14:55.335Z,0.00
2018-03-11T00:15:55.413Z,0.00
2018-03-11T00:16:55.290Z,0.00
2018-03-11T00:17:55.274Z,0.00
2018-03-11T00:18:55.260Z,0.00
2018-03-11T00:19:55.235Z,0.00
2018-03-11T00:20:55.212Z,0.00
2018-03-11T00:21:55.202Z,0.00
2018-03-11T00:22:55.175Z,0.00
2018-03-11T00:23:55.204Z,0.00
2018-03-11T00:24:55.129Z,0.00
2018-03-11T00:25:55.180Z,0.00
2018-03-11T00:26:55.090Z,0.00
2018-03-11T00:27:55.071Z,0.00
2018-03-11T00:28:55.051Z,0.00
2018-03-11T00:29:55.063Z,0.00
2018-03-11T00:30:55.009Z,0.00
2018-03-11T00:31:55.064Z,0.00
2018-03-11T00:32:54.971Z,0.00
2018-03-11T00:33:54.954Z,0.00
2018-03-11T00:34:54.931Z,0.00
2018-03-11T00:35:54.923Z,0.00
2018-03-11T00:36:54.890Z,0.00
2018-03-11T00:37:54.870Z,0.00
2018-03-11T00:38:54.851Z,0.00
2018-03-11T00:39:54.830Z,0.00
2018-03-11T00:40:54.816Z,0.00
2018-03-11T00:41:54.794Z,0.00
2018-03-11T00:42:54.767Z,0.00
2018-03-11T00:43:54.749Z,0.00
2018-03-11T00:44:54.729Z,0.00
2018-03-11T00:45:54.709Z,0.00
2018-03-11T00:46:54.693Z,0.00
2018-03-11T00:47:54.668Z,0.00
2018-03-11T00:48:54.649Z,0.00
2018-03-11T00:49:54.632Z,0.00
2018-03-11T00:50:54.614Z,0.00
2018-03-11T00:51:54.591Z,0.00
2018-03-11T00:52:54.572Z,0.00
2018-03-11T00:53:54.549Z,0.00
2018-03-11T00:54:54.530Z,0.00
2018-03-11T00:55:54.509Z,0.00
2018-03-11T00:56:54.489Z,0.00
2018-03-11T00:57:54.472Z,0.00
2018-03-11T00:58:54.447Z,0.00
2018-03-11T00:59:54.431Z,0.00
2018-03-11T01:00:54.406Z,0.00
2018-03-11T01:01:54.390Z,0.00
2018-03-11T01:02:54.367Z,0.00
2018-03-11T01:03:54.348Z,0.00
2018-03-11T01:04:54.328Z,0.00
2018-03-11T01:05:54.308Z,0.00
2018-03-11T01:06:54.285Z,0.00
2018-03-11T01:07:54.266Z,0.00
2018-03-11T01:08:54.247Z,0.00
2018-03-11T01:09:54.235Z,0.00
2018-03-11T01:10:54.206Z,0.00
2018-03-11T01:11:54.187Z,0.00
2018-03-11T01:12:54.167Z,0.00
2018-03-11T01:13:54.159Z,0.00
2018-03-11T01:14:54.130Z,0.00
2018-03-11T01:15:54.104Z,0.00
2018-03-11T01:16:54.092Z,0.00
2018-03-11T01:17:54.069Z,0.00
2018-03-11T01:18:54.052Z,0.00
2018-03-11T01:19:54.026Z,0.00
2018-03-11T01:20:54.004Z,0.00
2018-03-11T01:21:53.987Z,0.00
2018-03-11T01:22:53.964Z,0.00
2018-03-11T01:23:53.948Z,0.00
2018-03-11T01:24:53.925Z,0.00
2018-03-11T01:25:53.907Z,0.00
2018-03-11T01:26:53.883Z,0.00
2018-03-11T01:27:53.864Z,0.00
2018-03-11T01:28:53.847Z,0.00
2018-03-11T01:29:53.825Z,0.00
2018-03-11T01:30:53.804Z,0.00
2018-03-11T01:31:53.782Z,0.00
2018-03-11T01:32:53.763Z,0.00
2018-03-11T01:33:53.742Z,0.00
2018-03-11T01:34:53.724Z,0.00
2018-03-11T01:35:53.702Z,0.00
2018-03-11T01:36:53.689Z,0.00
2018-03-11T01:37:53.663Z,0.00
2018-03-11T01:38:53.644Z,0.00
2018-03-11T01:39:53.622Z,0.00
2018-03-11T01:40:53.602Z,0.00
2018-03-11T01:41:53.583Z,0.00
2018-03-11T01:42:53.559Z,0.00
2018-03-11T01:43:53.544Z,0.00
2018-03-11T01:44:53.518Z,0.00
2018-03-11T01:45:53.502Z,0.00
2018-03-11T01:46:53.482Z,0.00
2018-03-11T01:47:53.465Z,0.00
2018-03-11T01:48:53.439Z,0.00
2018-03-11T01:49:53.421Z,0.00
2018-03-11T01:50:53.407Z,0.00
2018-03-11T01:51:53.381Z,0.00
2018-03-11T01:52:53.362Z,0.00
2018-03-11T01:53:53.344Z,0.00
2018-03-11T01:54:53.322Z,0.00
2018-03-11T01:55:53.297Z,0.00
2018-03-11T01:56:53.279Z,0.00
2018-03-11T01:57:53.258Z,0.00
2018-03-11T01:58:53.249Z,0.00
2018-03-11T01:59:53.217Z,0.00
2018-03-11T02:00:53.202Z,0.00
2018-03-11T02:01:53.178Z,0.00
2018-03-11T02:02:53.164Z,0.00
2018-03-11T02:03:53.137Z,0.00
2018-03-11T02:04:53.122Z,0.00
2018-03-11T02:05:53.099Z,0.00
2018-03-11T02:06:53.076Z,0.00
2018-03-11T02:07:53.059Z,0.00
2018-03-11T02:08:53.037Z,0.00
2018-03-11T02:09:53.021Z,0.00
2018-03-11T02:10:52.997Z,0.00
2018-03-11T02:11:52.981Z,0.00
2018-03-11T02:12:52.965Z,0.00
2018-03-11T02:13:52.952Z,0.00
2018-03-11T02:14:52.915Z,0.00
2018-03-11T02:15:52.895Z,0.00
2018-03-11T02:16:52.877Z,0.00
2018-03-11T02:17:52.858Z,0.00
2018-03-11T02:18:52.845Z,0.00
2018-03-11T02:19:52.815Z,0.00
2018-03-11T02:20:52.799Z,0.00
2018-03-11T02:21:52.774Z,0.00
2018-03-11T02:22:52.754Z,0.00
2018-03-11T02:23:52.735Z,0.00
2018-03-11T02:24:52.716Z,0.00
2018-03-11T02:25:52.706Z,0.00
2018-03-11T02:26:52.673Z,0.00
2018-03-11T02:27:52.655Z,0.00
2018-03-11T02:28:52.641Z,0.00
2018-03-11T02:29:52.610Z,0.00
2018-03-11T02:30:52.600Z,0.00
2018-03-11T02:31:52.576Z,0.00
2018-03-11T02:32:52.554Z,0.00
2018-03-11T02:33:52.531Z,0.00
2018-03-11T02:34:52.516Z,0.00
2018-03-11T02:35:52.493Z,0.00
2018-03-11T02:36:52.472Z,0.00
2018-03-11T02:37:52.457Z,0.00
2018-03-11T02:38:52.429Z,0.00
2018-03-11T02:39:52.407Z,0.00
2018-03-11T02:40:52.388Z,0.00
2018-03-11T02:41:52.370Z,0.00
2018-03-11T02:42:52.347Z,0.00
2018-03-11T02:43:52.326Z,0.00
2018-03-11T02:44:52.307Z,0.00
2018-03-11T02:45:52.305Z,0.00
2018-03-11T02:46:52.267Z,0.00
2018-03-11T02:47:52.245Z,0.00
2018-03-11T02:48:52.225Z,0.00
2018-03-11T02:49:52.205Z,0.00
2018-03-11T02:50:52.196Z,0.00
2018-03-11T02:51:52.163Z,0.00
2018-03-11T02:52:52.147Z,0.00
2018-03-11T02:53:52.123Z,0.00
2018-03-11T02:54:52.101Z,0.00
2018-03-11T02:55:52.086Z,0.00
2018-03-11T02:56:52.060Z,0.00
2018-03-11T02:57:52.042Z,0.00
2018-03-11T02:58:52.069Z,0.00
2018-03-11T02:59:51.997Z,0.00
2018-03-11T03:00:51.982Z,0.00
2018-03-11T03:01:51.964Z,0.00
2018-03-11T03:02:51.937Z,0.00
2018-03-11T03:03:51.915Z,0.00
2018-03-11T03:04:51.894Z,0.00
2018-03-11T03:05:51.875Z,0.00
2018-03-11T03:06:51.855Z,0.00
2018-03-11T03:07:51.836Z,0.00
2018-03-11T03:08:51.819Z,0.00
2018-03-11T03:09:51.792Z,0.00
2018-03-11T03:10:51.822Z,0.00
2018-03-11T03:11:51.754Z,0.00
2018-03-11T03:12:51.736Z,0.00
2018-03-11T03:13:51.711Z,0.00
2018-03-11T03:14:51.741Z,0.00
2018-03-11T03:15:51.673Z,0.00
2018-03-11T03:16:51.674Z,0.00
2018-03-11T03:17:51.628Z,0.00
2018-03-11T03:18:51.705Z,0.00
2018-03-11T03:19:51.596Z,0.00
2018-03-11T03:20:51.615Z,0.00
2018-03-11T03:21:51.545Z,0.00
2018-03-11T03:22:51.521Z,0.00
2018-03-11T03:23:51.504Z,0.00
2018-03-11T03:24:51.584Z,0.00
2018-03-11T03:25:51.462Z,0.00
2018-03-11T03:26:51.443Z,0.00
2018-03-11T03:27:51.418Z,0.00
2018-03-11T03:28:51.451Z,0.00
2018-03-11T03:29:51.378Z,0.00
2018-03-11T03:30:51.519Z,0.00
2018-03-11T03:31:51.334Z,0.00
2018-03-11T03:32:51.367Z,0.00
2018-03-11T03:33:51.296Z,0.00
2018-03-11T03:34:51.375Z,0.00
2018-03-11T03:35:51.251Z,0.00
2018-03-11T03:36:51.235Z,0.00
2018-03-11T03:37:51.215Z,0.00
2018-03-11T03:38:51.283Z,0.00
2018-03-11T03:39:51.177Z,0.00
2018-03-11T03:40:51.255Z,0.00
2018-03-11T03:41:51.129Z,0.00
2018-03-11T03:42:51.112Z,0.00
2018-03-11T03:43:51.088Z,0.00
2018-03-11T03:44:51.167Z,0.00
2018-03-11T03:45:51.045Z,0.00
2018-03-11T03:46:51.061Z,0.00
2018-03-11T03:47:51.006Z,0.00
2018-03-11T03:48:50.985Z,0.00
2018-03-11T03:49:50.963Z,0.00
2018-03-11T03:50:50.941Z,0.00
2018-03-11T03:51:50.925Z,0.00
2018-03-11T03:52:50.904Z,0.00
2018-03-11T03:53:50.885Z,0.00
2018-03-11T03:54:50.863Z,0.00
2018-03-11T03:55:50.839Z,0.00
2018-03-11T03:56:50.819Z,0.00
2018-03-11T03:57:50.800Z,0.00
2018-03-11T03:58:50.776Z,0.00
2018-03-11T03:59:50.755Z,0.00
2018-03-11T04:00:50.736Z,0.00
2018-03-11T04:01:50.715Z,0.00
2018-03-11T04:02:50.694Z,0.00
2018-03-11T04:03:50.676Z,0.00
2018-03-11T04:04:50.655Z,0.00
2018-03-11T04:05:50.634Z,0.00
2018-03-11T04:06:50.609Z,0.00
2018-03-11T04:07:50.595Z,0.00
2018-03-11T04:08:50.570Z,0.00
2018-03-11T04:09:50.548Z,0.00
2018-03-11T04:10:50.532Z,0.00
2018-03-11T04:11:50.504Z,0.00
2018-03-11T04:12:50.484Z,0.00
2018-03-11T04:13:50.465Z,0.00
2018-03-11T04:14:50.444Z,0.00
2018-03-11T04:15:50.431Z,0.00
2018-03-11T04:16:50.403Z,0.00
2018-03-11T04:17:50.382Z,0.00
2018-03-11T04:18:50.364Z,0.00
2018-03-11T04:19:50.341Z,0.00
2018-03-11T04:20:50.319Z,0.00
2018-03-11T04:21:50.301Z,0.00
2018-03-11T04:22:50.281Z,0.00
2018-03-11T04:23:50.253Z,0.00
2018-03-11T04:24:50.240Z,0.00
2018-03-11T04:25:50.214Z,0.00
2018-03-11T04:26:50.194Z,0.00
2018-03-11T04:27:50.172Z,0.00
2018-03-11T04:28:50.154Z,0.00
2018-03-11T04:29:50.134Z,0.00
2018-03-11T04:30:50.108Z,0.00
2018-03-11T04:31:50.089Z,0.00
2018-03-11T04:32:50.067Z,0.00
2018-03-11T04:33:50.048Z,0.00
2018-03-11T04:34:50.025Z,0.00
2018-03-11T04:35:50.008Z,0.00
2018-03-11T04:36:49.983Z,0.00
2018-03-11T04:37:49.964Z,0.00
2018-03-11T04:38:49.941Z,0.00
2018-03-11T04:39:49.919Z,0.00
2018-03-11T04:40:49.906Z,0.00
2018-03-11T04:41:49.880Z,0.00
2018-03-11T04:42:49.855Z,0.00
2018-03-11T04:43:49.839Z,0.00
2018-03-11T04:44:49.820Z,0.00
2018-03-11T04:45:49.847Z,0.00
2018-03-11T04:46:49.777Z,0.00
2018-03-11T04:47:49.792Z,0.00
2018-03-11T04:48:49.731Z,0.00
2018-03-11T04:49:49.712Z,0.00
2018-03-11T04:50:49.688Z,0.00
2018-03-11T04:51:49.668Z,0.00
2018-03-11T04:52:49.649Z,0.00
2018-03-11T04:53:49.624Z,0.00
2018-03-11T04:54:49.605Z,0.00
2018-03-11T04:55:49.586Z,0.00
2018-03-11T04:56:49.560Z,0.00
2018-03-11T04:57:49.547Z,0.00
2018-03-11T04:58:49.520Z,0.00
2018-03-11T04:59:49.498Z,0.00
2018-03-11T05:00:49.479Z,0.00
2018-03-11T05:01:49.458Z,0.00
2018-03-11T05:02:49.434Z,0.00
2018-03-11T05:03:49.417Z,0.00
2018-03-11T05:04:49.397Z,0.00
2018-03-11T05:05:49.372Z,0.00
2018-03-11T05:06:49.351Z,0.00
2018-03-11T05:07:49.333Z,0.00
2018-03-11T05:08:49.310Z,0.00
2018-03-11T05:09:49.292Z,0.00
2018-03-11T05:10:49.266Z,0.00
2018-03-11T05:11:49.246Z,0.00
2018-03-11T05:12:49.225Z,0.00
2018-03-11T05:13:49.204Z,0.00
2018-03-11T05:14:49.210Z,0.00
2018-03-11T05:15:49.166Z,0.00
2018-03-11T05:16:49.139Z,0.00
2018-03-11T05:17:49.128Z,0.00
2018-03-11T05:18:49.095Z,0.00
2018-03-11T05:19:49.075Z,0.00
2018-03-11T05:20:49.054Z,5.63
2018-03-11T05:21:49.036Z,5.63
2018-03-11T05:22:49.012Z,5.63
2018-03-11T05:23:48.991Z,5.63
2018-03-11T05:24:48.969Z,5.63
2018-03-11T05:25:48.968Z,5.63
2018-03-11T05:26:48.928Z,11.25
2018-03-11T05:27:48.905Z,11.25
2018-03-11T05:28:48.886Z,11.25
2018-03-11T05:29:48.873Z,11.25
2018-03-11T05:30:48.845Z,16.88
2018-03-11T05:31:48.825Z,16.88
2018-03-11T05:32:48.800Z,16.88
2018-03-11T05:33:48.781Z,16.88
2018-03-11T05:34:48.761Z,22.50
2018-03-11T05:35:48.737Z,22.50
2018-03-11T05:36:48.715Z,22.50
2018-03-11T05:37:48.701Z,28.13
2018-03-11T05:38:48.675Z,28.13
2018-03-11T05:39:48.655Z,28.13
2018-03-11T05:40:48.634Z,33.75
2018-03-11T05:41:48.610Z,33.75
2018-03-11T05:42:48.592Z,39.38
2018-03-11T05:43:48.571Z,39.38
2018-03-11T05:44:48.547Z,45.00
2018-03-11T05:45:48.525Z,45.00
2018-03-11T05:46:48.506Z,50.63
2018-03-11T05:47:48.492Z,50.63
2018-03-11T05:48:48.467Z,56.25
2018-03-11T05:49:48.444Z,61.88
2018-03-11T05:50:48.420Z,61.88
2018-03-11T05:51:48.403Z,67.50
2018-03-11T05:52:48.377Z,73.13
2018-03-11T05:53:48.363Z,73.13
2018-03-11T05:54:48.336Z,84.38
2018-03-11T05:55:48.317Z,90.00
2018-03-11T05:56:48.303Z,90.00
2018-03-11T05:57:48.275Z,95.63
2018-03-11T05:58:48.254Z,101.25
2018-03-11T05:59:48.230Z,101.25
2018-03-11T06:00:48.212Z,106.88
2018-03-11T06:01:48.192Z,112.50
2018-03-11T06:02:48.167Z,112.50
2018-03-11T06:03:48.148Z,118.13
2018-03-11T06:04:48.126Z,118.13
2018-03-11T06:05:48.111Z,123.75
2018-03-11T06:06:48.087Z,129.38
2018-03-11T06:07:48.064Z,129.38
2018-03-11T06:08:48.046Z,135.00
2018-03-11T06:09:48.025Z,140.63
2018-03-11T06:10:48.002Z,140.63
2018-03-11T06:11:47.993Z,146.25
2018-03-11T06:12:47.974Z,151.88
2018-03-11T06:13:47.990Z,151.88
2018-03-11T06:14:47.921Z,157.50
2018-03-11T06:15:47.896Z,157.50
2018-03-11T06:16:47.876Z,157.50
2018-03-11T06:17:47.866Z,163.13
2018-03-11T06:18:47.835Z,168.75
2018-03-11T06:19:47.816Z,174.38
2018-03-11T06:20:47.794Z,180.00
2018-03-11T06:21:47.775Z,180.00
2018-03-11T06:22:47.752Z,185.63
2018-03-11T06:23:47.732Z,191.25
2018-03-11T06:24:47.714Z,191.25
2018-03-11T06:25:47.724Z,196.88
2018-03-11T06:26:47.668Z,202.50
2018-03-11T06:27:47.652Z,208.13
2018-03-11T06:28:47.629Z,208.13
2018-03-11T06:29:47.612Z,213.75
2018-03-11T06:30:47.597Z,219.38
2018-03-11T06:31:47.641Z,219.38
2018-03-11T06:32:47.548Z,225.00
2018-03-11T06:33:47.525Z,230.63
2018-03-11T06:34:47.505Z,230.63
2018-03-11T06:35:47.483Z,236.25
2018-03-11T06:36:47.463Z,241.88
2018-03-11T06:37:47.447Z,241.88
2018-03-11T06:38:47.422Z,247.50
2018-03-11T06:39:47.410Z,253.13
2018-03-11T06:40:47.383Z,253.13
2018-03-11T06:41:47.366Z,258.75
2018-03-11T06:42:47.440Z,258.75
2018-03-11T06:43:47.322Z,264.38
2018-03-11T06:44:47.301Z,264.38
2018-03-11T06:45:47.280Z,270.00
2018-03-11T06:46:47.266Z,275.63
2018-03-11T06:47:47.308Z,275.63
2018-03-11T06:48:47.273Z,281.25
2018-03-11T06:49:47.200Z,281.25
2018-03-11T06:50:47.175Z,281.25
2018-03-11T06:51:47.161Z,281.25
2018-03-11T06:52:47.142Z,281.25
2018-03-11T06:53:47.121Z,286.88
2018-03-11T06:54:47.103Z,292.50
2018-03-11T06:55:47.078Z,298.13
2018-03-11T06:56:47.061Z,298.13
2018-03-11T06:57:47.091Z,298.13
2018-03-11T06:58:47.013Z,303.75
2018-03-11T06:59:46.997Z,309.38
2018-03-11T07:00:46.976Z,309.38
2018-03-11T07:01:46.962Z,309.38
2018-03-11T07:02:46.939Z,315.00
2018-03-11T07:03:46.966Z,320.63
2018-03-11T07:04:46.898Z,326.25
2018-03-11T07:05:46.884Z,326.25
2018-03-11T07:06:46.860Z,331.88
2018-03-11T07:07:46.843Z,337.50
2018-03-11T07:08:46.821Z,343.13
2018-03-11T07:09:46.801Z,343.13
2018-03-11T07:10:46.780Z,343.13
2018-03-11T07:11:46.762Z,348.75
2018-03-11T07:12:46.740Z,354.38
2018-03-11T07:13:46.722Z,360.00
2018-03-11T07:14:46.699Z,365.63
2018-03-11T07:15:46.681Z,360.00
2018-03-11T07:16:46.667Z,365.63
2018-03-11T07:17:46.645Z,360.00
2018-03-11T07:18:46.619Z,354.38
2018-03-11T07:19:46.602Z,348.75
2018-03-11T07:20:46.741Z,354.38
2018-03-11T07:21:46.565Z,365.63
2018-03-11T07:22:46.539Z,365.63
2018-03-11T07:23:46.534Z,376.88
2018-03-11T07:24:46.508Z,393.75
2018-03-11T07:25:46.488Z,399.38
2018-03-11T07:26:46.466Z,399.38
2018-03-11T07:27:46.647Z,399.38
2018-03-11T07:28:46.483Z,405.00
2018-03-11T07:29:46.414Z,405.00
2018-03-11T07:30:46.395Z,405.00
2018-03-11T07:31:46.382Z,405.00
2018-03-11T07:32:46.406Z,410.63
2018-03-11T07:33:46.436Z,416.25
2018-03-11T07:34:46.322Z,421.88
2018-03-11T07:35:46.304Z,427.50
2018-03-11T07:36:46.434Z,433.13
2018-03-11T07:37:46.267Z,438.75
2018-03-11T07:38:46.252Z,444.38
2018-03-11T07:39:46.229Z,450.00
2018-03-11T07:40:46.206Z,450.00
2018-03-11T07:41:46.190Z,455.63
2018-03-11T07:42:46.177Z,455.63
2018-03-11T07:43:46.158Z,466.88
2018-03-11T07:44:46.138Z,472.50
2018-03-11T07:45:46.123Z,478.13
2018-03-11T07:46:46.103Z,466.88
2018-03-11T07:47:46.086Z,478.13
2018-03-11T07:48:46.065Z,495.00
2018-03-11T07:49:46.051Z,506.25
2018-03-11T07:50:46.032Z,506.25
2018-03-11T07:51:46.064Z,517.50
2018-03-11T07:52:45.997Z,523.13
2018-03-11T07:53:45.984Z,528.75
2018-03-11T07:54:45.965Z,540.00
2018-03-11T07:55:45.949Z,551.25
2018-03-11T07:56:45.920Z,551.25
2018-03-11T07:57:45.911Z,562.50
2018-03-11T07:58:45.892Z,573.75
2018-03-11T07:59:45.881Z,585.00
2018-03-11T08:00:45.856Z,585.00
2018-03-11T08:01:45.947Z,585.00
2018-03-11T08:02:45.824Z,601.88
2018-03-11T08:03:45.813Z,613.13
2018-03-11T08:04:45.794Z,624.38
2018-03-11T08:05:45.778Z,635.63
2018-03-11T08:06:47.682Z,635.63
2018-03-11T08:07:45.743Z,641.25
2018-03-11T08:08:45.729Z,641.25
2018-03-11T08:09:45.710Z,691.88
2018-03-11T08:10:45.687Z,720.00
2018-03-11T08:11:45.682Z,748.13
2018-03-11T08:12:45.660Z,770.63
2018-03-11T08:13:45.646Z,810.00
2018-03-11T08:14:45.629Z,860.63
2018-03-11T08:15:45.615Z,916.88
2018-03-11T08:16:45.646Z,1203.75
2018-03-11T08:17:45.582Z,2053.13
2018-03-11T08:18:45.570Z,2902.50
2018-03-11T08:19:45.552Z,3200.63
2018-03-11T08:20:45.532Z,3346.88
2018-03-11T08:21:45.519Z,3352.50
2018-03-11T08:22:45.506Z,3571.88
2018-03-11T08:23:45.493Z,3622.50
2018-03-11T08:24:45.473Z,3560.63
2018-03-11T08:25:45.466Z,3521.25
2018-03-11T08:26:45.445Z,3436.88
2018-03-11T08:27:45.505Z,3301.88
2018-03-11T08:28:45.419Z,3206.25
2018-03-11T08:29:45.497Z,3296.25
2018-03-11T08:30:45.395Z,3436.88
2018-03-11T08:31:45.381Z,3706.88
2018-03-11T08:32:45.370Z,3841.88
2018-03-11T08:33:45.364Z,3875.63
2018-03-11T08:34:45.345Z,3915.00
2018-03-11T08:35:45.339Z,3847.50
2018-03-11T08:36:45.332Z,3870.00
2018-03-11T08:37:45.365Z,4055.63
2018-03-11T08:38:45.302Z,4145.63
2018-03-11T08:39:45.294Z,4095.00
2018-03-11T08:40:45.481Z,4140.00
2018-03-11T08:41:45.332Z,4145.63
2018-03-11T08:42:45.322Z,4123.13
2018-03-11T08:43:45.267Z,4117.50
2018-03-11T08:44:45.358Z,4145.63
2018-03-11T08:45:45.244Z,4145.63
2018-03-11T08:46:45.237Z,4190.63
2018-03-11T08:47:45.235Z,4196.25
2018-03-11T08:48:45.227Z,4246.88
2018-03-11T08:49:45.221Z,4314.38
2018-03-11T08:50:45.213Z,4162.50
2018-03-11T08:51:45.203Z,4111.88
2018-03-11T08:52:45.201Z,4213.13
2018-03-11T08:53:45.299Z,4308.75
2018-03-11T08:54:45.196Z,4179.38
2018-03-11T08:55:45.193Z,4134.38
2018-03-11T08:56:45.181Z,4207.50
2018-03-11T08:57:45.183Z,4066.88
2018-03-11T08:58:45.179Z,3976.88
2018-03-11T08:59:45.176Z,4134.38
2018-03-11T09:00:45.171Z,4033.13
2018-03-11T09:01:45.171Z,4196.25
2018-03-11T09:02:45.169Z,4140.00
2018-03-11T09:03:45.163Z,4455.00
2018-03-11T09:04:45.231Z,4533.75
2018-03-11T09:05:45.215Z,4623.75
2018-03-11T09:06:45.292Z,4696.88
2018-03-11T09:07:45.152Z,4725.00
2018-03-11T09:08:45.158Z,4775.63
2018-03-11T09:09:45.155Z,4545.00
2018-03-11T09:10:45.243Z,4376.25
2018-03-11T09:11:45.152Z,4539.38
2018-03-11T09:12:45.153Z,4792.50
2018-03-11T09:13:45.203Z,4837.50
2018-03-11T09:14:45.249Z,4865.63
2018-03-11T09:15:45.199Z,4888.13
2018-03-11T09:16:45.148Z,4820.63
2018-03-11T09:17:45.148Z,4685.63
2018-03-11T09:18:45.246Z,4635.00
2018-03-11T09:19:45.147Z,4606.88
2018-03-11T09:20:45.149Z,4736.25
2018-03-11T09:21:45.153Z,4843.13
2018-03-11T09:22:45.147Z,4820.63
2018-03-11T09:23:45.204Z,4809.38
2018-03-11T09:24:45.150Z,4775.63
2018-03-11T09:25:45.152Z,4713.75
2018-03-11T09:26:45.224Z,4831.88
2018-03-11T09:27:45.150Z,4820.63
2018-03-11T09:28:45.202Z,4837.50
2018-03-11T09:29:45.166Z,4798.13
2018-03-11T09:30:45.157Z,4843.13
2018-03-11T09:31:45.165Z,4764.38
2018-03-11T09:32:45.167Z,4826.25
2018-03-11T09:33:45.171Z,4916.25
2018-03-11T09:34:45.218Z,4938.75
2018-03-11T09:35:45.223Z,4921.88
2018-03-11T09:36:45.176Z,5006.25
2018-03-11T09:37:45.173Z,5000.63
2018-03-11T09:38:45.223Z,4837.50
2018-03-11T09:39:45.181Z,4758.75
2018-03-11T09:40:45.175Z,4691.25
2018-03-11T09:41:45.184Z,4741.88
2018-03-11T09:42:45.234Z,4865.63
2018-03-11T09:43:45.185Z,5000.63
2018-03-11T09:44:45.183Z,5006.25
2018-03-11T09:45:45.191Z,4905.00
2018-03-11T09:46:45.198Z,5180.63
2018-03-11T09:47:45.206Z,5220.00
2018-03-11T09:48:45.205Z,4995.00
2018-03-11T09:49:45.211Z,5298.75
2018-03-11T09:50:45.208Z,5304.38
2018-03-11T09:51:45.211Z,5225.63
2018-03-11T09:52:45.216Z,5220.00
2018-03-11T09:53:45.222Z,5394.38
2018-03-11T09:54:45.221Z,5411.25
2018-03-11T09:55:45.232Z,5445.00
2018-03-11T09:56:45.296Z,5580.00
2018-03-11T09:57:45.232Z,5596.88
2018-03-11T09:58:45.297Z,5585.63
2018-03-11T09:59:45.237Z,5574.38
2018-03-11T10:00:45.255Z,5484.38
2018-03-11T10:01:45.240Z,5546.25
2018-03-11T10:02:45.247Z,5450.63
2018-03-11T10:03:45.291Z,5501.25
2018-03-11T10:04:45.260Z,5506.88
2018-03-11T10:05:45.257Z,5540.63
2018-03-11T10:06:45.263Z,5613.75
2018-03-11T10:07:45.271Z,5585.63
2018-03-11T10:08:45.271Z,5748.75
2018-03-11T10:09:45.275Z,5698.13
2018-03-11T10:10:45.279Z,5675.63
2018-03-11T10:11:45.285Z,5686.88
2018-03-11T10:12:45.283Z,5760.00
2018-03-11T10:13:45.287Z,5838.75
2018-03-11T10:14:45.296Z,5776.88
2018-03-11T10:15:45.299Z,5776.88
2018-03-11T10:16:45.300Z,5731.88
2018-03-11T10:17:45.308Z,5664.38
2018-03-11T10:18:45.308Z,5788.13
2018-03-11T10:19:45.318Z,5872.50
2018-03-11T10:20:45.322Z,5715.00
2018-03-11T10:21:45.324Z,5675.63
2018-03-11T10:22:45.325Z,5220.00
2018-03-11T10:23:45.332Z,5821.88
2018-03-11T10:24:45.337Z,5726.25
2018-03-11T10:25:45.406Z,5731.88
2018-03-11T10:26:45.345Z,5737.50
2018-03-11T10:27:45.349Z,5743.13
2018-03-11T10:28:45.361Z,5585.63
2018-03-11T10:29:45.369Z,5810.63
2018-03-11T10:30:45.366Z,5883.75
2018-03-11T10:31:45.366Z,5596.88
2018-03-11T10:32:45.373Z,5805.00
2018-03-11T10:33:45.378Z,5962.50
2018-03-11T10:34:45.384Z,6075.00
2018-03-11T10:35:45.384Z,5979.38
2018-03-11T10:36:45.391Z,5940.00
2018-03-11T10:37:45.396Z,5951.25
2018-03-11T10:38:45.399Z,5810.63
2018-03-11T10:39:45.405Z,6097.50
2018-03-11T10:40:45.559Z,5956.88
2018-03-11T10:41:45.418Z,5985.00
2018-03-11T10:42:45.418Z,6198.75
2018-03-11T10:43:45.422Z,6243.75
2018-03-11T10:44:45.435Z,6429.38
2018-03-11T10:45:45.431Z,6496.88
2018-03-11T10:46:45.499Z,6502.50
2018-03-11T10:47:45.443Z,6615.00
2018-03-11T10:48:45.458Z,6553.13
2018-03-11T10:49:45.502Z,6637.50
2018-03-11T10:50:45.527Z,6598.13
2018-03-11T10:51:45.467Z,6637.50
2018-03-11T10:52:45.471Z,6429.38
2018-03-11T10:53:45.474Z,6598.13
2018-03-11T10:54:45.478Z,6609.38
2018-03-11T10:55:45.491Z,894.38
2018-03-11T10:56:45.496Z,6339.38
2018-03-11T10:57:45.500Z,967.50
2018-03-11T10:58:45.500Z,6226.88
2018-03-11T10:59:45.506Z,6204.38
2018-03-11T11:00:45.506Z,6232.50
2018-03-11T11:01:45.607Z,6260.63
2018-03-11T11:02:45.518Z,6238.13
2018-03-11T11:03:45.525Z,6350.63
2018-03-11T11:04:45.525Z,6513.75
2018-03-11T11:05:45.536Z,6564.38
2018-03-11T11:06:45.552Z,6592.50
2018-03-11T11:07:45.650Z,6609.38
2018-03-11T11:08:45.561Z,6564.38
2018-03-11T11:09:45.611Z,6508.13
2018-03-11T11:10:45.558Z,6446.25
2018-03-11T11:11:45.615Z,6508.13
2018-03-11T11:12:45.568Z,6508.13
2018-03-11T11:13:45.576Z,6671.25
2018-03-11T11:14:45.589Z,6688.13
2018-03-11T11:15:45.586Z,6615.00
2018-03-11T11:16:45.593Z,6463.13
2018-03-11T11:17:45.600Z,6530.63
2018-03-11T11:18:45.603Z,6558.75
2018-03-11T11:19:45.613Z,6783.75
2018-03-11T11:20:45.618Z,6063.75
2018-03-11T11:21:45.625Z,6637.50
2018-03-11T11:22:45.635Z,6766.88
2018-03-11T11:23:45.641Z,6553.13
2018-03-11T11:24:45.748Z,6502.50
2018-03-11T11:25:45.651Z,6637.50
2018-03-11T11:26:45.657Z,6778.13
2018-03-11T11:27:45.663Z,6570.00
2018-03-11T11:28:45.720Z,5388.75
2018-03-11T11:29:45.676Z,5529.38
2018-03-11T11:30:45.730Z,4241.25
2018-03-11T11:31:45.694Z,5748.75
2018-03-11T11:32:45.696Z,1991.25
2018-03-11T11:33:45.708Z,2351.25
2018-03-11T11:34:45.712Z,6862.50
2018-03-11T11:35:45.714Z,5180.63
2018-03-11T11:36:45.733Z,3510.00
2018-03-11T11:37:45.725Z,2233.13
2018-03-11T11:38:45.734Z,6997.50
2018-03-11T11:39:45.738Z,5495.63
2018-03-11T11:40:45.746Z,4038.75
2018-03-11T11:41:45.747Z,2345.63
2018-03-11T11:42:45.755Z,2896.88
2018-03-11T11:43:45.773Z,1473.75
2018-03-11T11:44:45.765Z,1305.00
2018-03-11T11:45:45.780Z,1181.25
2018-03-11T11:46:45.773Z,1057.50
2018-03-11T11:47:45.791Z,1001.25
2018-03-11T11:48:45.855Z,967.50
2018-03-11T11:49:45.797Z,900.00
2018-03-11T11:50:45.793Z,826.88
2018-03-11T11:51:45.844Z,798.75
2018-03-11T11:52:45.798Z,748.13
2018-03-11T11:53:45.801Z,703.13
2018-03-11T11:54:45.801Z,703.13
2018-03-11T11:55:45.806Z,714.38
2018-03-11T11:56:45.812Z,748.13
2018-03-11T11:57:45.811Z,708.75
2018-03-11T11:58:45.812Z,618.75
2018-03-11T11:59:45.814Z,551.25
2018-03-11T12:00:45.844Z,545.63
2018-03-11T12:01:45.818Z,540.00
2018-03-11T12:02:45.818Z,506.25
2018-03-11T12:03:45.818Z,478.13
2018-03-11T12:04:45.818Z,495.00
2018-03-11T12:05:45.820Z,545.63
2018-03-11T12:06:45.937Z,686.25
2018-03-11T12:07:45.820Z,776.25
2018-03-11T12:08:45.820Z,781.88
2018-03-11T12:09:45.821Z,838.13
2018-03-11T12:10:45.821Z,1153.13
2018-03-11T12:11:45.815Z,1777.50
2018-03-11T12:12:45.895Z,1389.38
2018-03-11T12:13:45.818Z,1164.38
2018-03-11T12:14:45.866Z,1113.75
2018-03-11T12:15:45.814Z,1096.88
2018-03-11T12:16:45.854Z,1108.13
2018-03-11T12:17:45.807Z,905.63
2018-03-11T12:18:45.805Z,1141.88
2018-03-11T12:19:45.802Z,1181.25
2018-03-11T12:20:45.799Z,1226.25
2018-03-11T12:21:45.796Z,1254.38
2018-03-11T12:22:45.799Z,1293.75
2018-03-11T12:23:45.790Z,1321.88
2018-03-11T12:24:45.787Z,1186.88
2018-03-11T12:25:45.784Z,1153.13
2018-03-11T12:26:45.785Z,1366.88
2018-03-11T12:27:45.785Z,1310.63
2018-03-11T12:28:45.796Z,1468.13
2018-03-11T12:29:45.771Z,1282.50
2018-03-11T12:30:45.771Z,765.00
2018-03-11T12:31:45.769Z,2283.75
2018-03-11T12:32:45.766Z,4156.88
2018-03-11T12:33:45.764Z,5163.75
2018-03-11T12:34:45.758Z,5405.63
2018-03-11T12:35:45.755Z,4674.38
2018-03-11T12:36:45.763Z,2323.13
2018-03-11T12:37:45.758Z,1417.50
2018-03-11T12:38:45.756Z,1372.50
2018-03-11T12:39:45.755Z,1333.13
2018-03-11T12:40:45.749Z,1366.88
2018-03-11T12:41:45.790Z,2272.50
2018-03-11T12:42:45.742Z,3982.50